Time;durP1;ratioP1;P1;durP2;ratioP2;P2;SDS_P1;SDS_P2;PMS_P1;PMS_P2;Temp;Humidity;BMP_temperature;BMP_pressure;BME280_temperature;BME280_humidity;BME280_pressure;Samples;Min_cycle;Max_cycle;Signal;HPM_P1;HPM_P2
2021/06/04 00:00:28;;;;;;;6.47;5.87;;;;;;;18.40;100.00;98552.59;5074465;28;20232;-67
2021/06/04 00:02:56;;;;;;;6.80;6.10;;;;;;;18.39;100.00;98558.09;5075379;28;20227;-65
2021/06/04 00:05:27;;;;;;;5.90;5.40;;;;;;;18.34;100.00;98555.84;5075365;28;20207;-65
2021/06/04 00:07:53;;;;;;;6.13;5.57;;;;;;;18.28;100.00;98556.38;5075516;28;20213;-68
2021/06/04 00:10:24;;;;;;;6.00;5.40;;;;;;;18.17;100.00;98545.84;5075153;28;20211;-70
2021/06/04 00:12:50;;;;;;;6.33;5.73;;;;;;;18.12;100.00;98544.59;5075409;28;20220;-68
2021/06/04 00:15:22;;;;;;;6.53;5.90;;;;;;;18.04;100.00;98549.81;5073220;28;20239;-70
2021/06/04 00:17:49;;;;;;;5.70;5.17;;;;;;;17.98;100.00;98556.56;5075426;28;20215;-70
2021/06/04 00:20:21;;;;;;;5.40;4.90;;;;;;;17.95;100.00;98558.69;5075142;28;20234;-70
2021/06/04 00:22:47;;;;;;;5.47;4.97;;;;;;;17.88;100.00;98550.41;5075170;28;20230;-70
2021/06/04 00:25:13;;;;;;;5.50;5.00;;;;;;;17.81;100.00;98543.91;5074817;28;20673;-69
2021/06/04 00:27:39;;;;;;;5.43;4.90;;;;;;;17.81;100.00;98538.53;5074855;28;20574;-68
2021/06/04 00:30:07;;;;;;;5.50;5.00;;;;;;;17.77;100.00;98542.50;5074733;28;20211;-70
2021/06/04 00:32:33;;;;;;;6.07;5.20;;;;;;;17.78;100.00;98549.53;5075190;28;20211;-69
2021/06/04 00:35:01;;;;;;;5.53;5.03;;;;;;;17.73;100.00;98545.63;5075010;28;20215;-70
2021/06/04 00:37:27;;;;;;;6.17;5.10;;;;;;;17.66;100.00;98539.97;5074675;28;20673;-69
2021/06/04 00:39:53;;;;;;;5.10;4.60;;;;;;;17.63;100.00;98540.22;5074584;28;20758;-69
2021/06/04 00:42:23;;;;;;;5.73;5.23;;;;;;;17.56;100.00;98547.13;5073079;28;20207;-69
2021/06/04 00:44:52;;;;;;;5.80;5.20;;;;;;;17.48;100.00;98546.97;5074449;28;20207;-67
2021/06/04 00:47:18;;;;;;;5.90;5.30;;;;;;;17.35;100.00;98550.84;5074756;28;20257;-67
2021/06/04 00:49:44;;;;;;;5.67;5.10;;;;;;;17.19;100.00;98550.56;5074579;28;20219;-67
2021/06/04 00:52:15;;;;;;;5.93;5.20;;;;;;;17.05;100.00;98543.75;5074712;28;20287;-67
2021/06/04 00:54:42;;;;;;;5.80;5.30;;;;;;;16.96;100.00;98555.25;5074766;28;20205;-67
2021/06/04 00:57:08;;;;;;;6.20;5.60;;;;;;;16.90;100.00;98550.47;5074324;28;20211;-67
2021/06/04 00:59:37;;;;;;;6.30;5.70;;;;;;;16.86;100.00;98549.03;5074178;28;20242;-67
2021/06/04 01:02:04;;;;;;;6.40;5.80;;;;;;;16.87;100.00;98547.19;5074348;28;20211;-67
2021/06/04 01:04:31;;;;;;;6.37;5.77;;;;;;;16.85;100.00;98549.16;5074500;28;20208;-66
2021/06/04 01:07:01;;;;;;;6.17;5.57;;;;;;;16.77;100.00;98552.50;5074340;28;20211;-66
2021/06/04 01:09:45;;;;;;;6.00;5.50;;;;;;;16.73;100.00;98548.44;5072545;28;20212;-67
2021/06/04 01:12:26;;;;;;;5.90;5.40;;;;;;;16.69;100.00;98547.00;5074105;28;20220;-67
2021/06/04 01:15:01;;;;;;;5.83;5.33;;;;;;;16.62;100.00;98555.66;5073919;28;20709;-68
2021/06/04 01:17:32;;;;;;;7.50;6.00;;;;;;;16.59;100.00;98545.28;5073992;28;20218;-67
2021/06/04 01:20:05;;;;;;;7.00;6.37;;;;;;;16.62;100.00;98545.84;5074117;28;20591;-66
2021/06/04 01:23:01;;;;;;;6.73;6.13;;;;;;;16.60;100.00;98542.47;5074229;28;20203;-67
2021/06/04 01:25:45;;;;;;;7.07;6.20;;;;;;;16.56;100.00;98548.19;5073650;28;20207;-67
2021/06/04 01:28:15;;;;;;;7.73;6.40;;;;;;;16.56;100.00;98551.72;5073667;28;20211;-66
2021/06/04 01:30:48;;;;;;;7.23;5.60;;;;;;;16.55;100.00;98554.50;5073757;28;20211;-66
2021/06/04 01:33:17;;;;;;;6.67;5.97;;;;;;;16.57;100.00;98564.09;5073604;28;20218;-67
2021/06/04 01:35:47;;;;;;;6.03;5.47;;;;;;;16.56;100.00;98562.41;5072803;28;20727;-66
2021/06/04 01:38:15;;;;;;;6.50;5.57;;;;;;;16.53;100.00;98551.16;5073640;28;20696;-66
2021/06/04 01:40:47;;;;;;;6.53;5.80;;;;;;;16.46;100.00;98558.81;5073703;28;20239;-66
2021/06/04 01:43:18;;;;;;;6.50;5.83;;;;;;;16.44;100.00;98558.13;5073471;28;20216;-65
2021/06/04 01:45:50;;;;;;;6.47;5.87;;;;;;;16.38;100.00;98563.97;5073679;28;20211;-67
2021/06/04 01:48:20;;;;;;;6.17;5.33;;;;;;;16.31;100.00;98568.13;5073544;28;20610;-66
2021/06/04 01:50:50;;;;;;;6.10;5.50;;;;;;;16.26;100.00;98570.31;5073531;28;20575;-66
2021/06/04 01:53:21;;;;;;;6.70;5.30;;;;;;;16.19;100.00;98566.50;5073192;28;20581;-66
2021/06/04 01:55:54;;;;;;;5.60;5.10;;;;;;;16.13;100.00;98569.69;5073135;28;20207;-67
2021/06/04 01:58:26;;;;;;;5.40;4.90;;;;;;;16.08;100.00;98582.56;5073472;28;20203;-67
2021/06/04 02:00:55;;;;;;;5.43;4.90;;;;;;;16.05;100.00;98571.28;5071583;28;20234;-69
2021/06/04 02:03:24;;;;;;;5.10;4.60;;;;;;;16.01;100.00;98569.03;5073158;28;20207;-70
2021/06/04 02:05:52;;;;;;;5.37;4.87;;;;;;;15.93;100.00;98564.34;5073123;28;20673;-68
2021/06/04 02:08:23;;;;;;;5.60;4.90;;;;;;;15.91;100.00;98570.75;5073251;28;20203;-67
2021/06/04 02:10:53;;;;;;;5.50;4.40;;;;;;;15.90;100.00;98571.75;5073152;28;20212;-68
2021/06/04 02:13:20;;;;;;;4.87;4.47;;;;;;;15.87;100.00;98566.66;5073026;28;20222;-67
2021/06/04 02:15:50;;;;;;;4.80;4.40;;;;;;;15.88;100.00;98565.69;5073329;28;20242;-67
2021/06/04 02:18:23;;;;;;;4.87;4.47;;;;;;;15.92;100.00;98567.13;5073250;28;20615;-67
2021/06/04 02:20:54;;;;;;;4.53;4.13;;;;;;;15.97;100.00;98567.59;5073208;28;20532;-66
2021/06/04 02:23:25;;;;;;;4.73;4.20;;;;;;;15.97;100.00;98567.59;5072565;28;20207;-66
2021/06/04 02:26:01;;;;;;;4.93;4.53;;;;;;;15.96;100.00;98563.22;5071288;28;20575;-66
2021/06/04 02:28:31;;;;;;;6.63;4.60;;;;;;;16.01;100.00;98561.03;5073244;28;20215;-66
2021/06/04 02:31:06;;;;;;;4.77;4.37;;;;;;;16.02;100.00;98565.38;5073145;28;20207;-66
2021/06/04 02:33:36;;;;;;;5.03;4.50;;;;;;;16.08;100.00;98559.53;5073108;28;20214;-68
2021/06/04 02:36:05;;;;;;;5.00;4.60;;;;;;;16.10;100.00;98559.25;5073078;28;20211;-67
2021/06/04 02:38:35;;;;;;;5.87;5.30;;;;;;;16.16;100.00;98560.56;5072608;28;20208;-68
2021/06/04 02:41:06;;;;;;;5.93;5.43;;;;;;;16.19;100.00;98558.50;5072643;28;20575;-68
2021/06/04 02:43:35;;;;;;;6.37;5.73;;;;;;;16.21;100.00;98561.03;5072983;28;20207;-68
2021/06/04 02:46:05;;;;;;;6.33;5.33;;;;;;;16.21;100.00;98556.53;5072673;28;20203;-68
2021/06/04 02:48:31;;;;;;;6.67;6.07;;;;;;;16.23;100.00;98559.06;5072847;28;20210;-68
2021/06/04 02:51:04;;;;;;;6.67;5.90;;;;;;;16.24;100.00;98545.63;5072776;28;20211;-68
2021/06/04 02:53:35;;;;;;;6.87;6.13;;;;;;;16.25;100.00;98551.78;5071148;28;20210;-68
2021/06/04 02:56:19;;;;;;;8.07;6.33;;;;;;;16.29;100.00;98559.41;5072618;28;20235;-67
2021/06/04 02:58:48;;;;;;;6.97;6.27;;;;;;;16.28;100.00;98556.88;5072823;28;20356;-67
2021/06/04 03:01:16;;;;;;;7.03;6.30;;;;;;;16.28;100.00;98552.34;5072743;28;20247;-66
2021/06/04 03:03:47;;;;;;;6.83;6.13;;;;;;;16.27;100.00;98553.34;5072467;28;20677;-66
2021/06/04 03:06:13;;;;;;;6.20;5.60;;;;;;;16.25;100.00;98552.63;5072710;28;20215;-66
2021/06/04 03:08:40;;;;;;;6.73;6.13;;;;;;;16.29;100.00;98553.22;5072382;28;20216;-66
2021/06/04 03:11:11;;;;;;;7.00;6.37;;;;;;;16.31;100.00;98557.44;5072553;28;20628;-66
2021/06/04 03:13:37;;;;;;;8.23;6.73;;;;;;;16.29;100.00;98555.88;5072793;28;20285;-66
2021/06/04 03:16:05;;;;;;;7.17;6.53;;;;;;;16.25;100.00;98557.97;5072757;28;20232;-65
2021/06/04 03:18:34;;;;;;;6.83;6.23;;;;;;;16.22;100.00;98552.88;5071047;28;20212;-66
2021/06/04 03:21:05;;;;;;;6.97;6.27;;;;;;;16.17;100.00;98555.13;5072221;28;20235;-66
2021/06/04 03:23:38;;;;;;;7.93;6.60;;;;;;;16.15;100.00;98567.72;5072286;28;20253;-66
2021/06/04 03:26:08;;;;;;;7.23;6.40;;;;;;;16.10;100.00;98569.91;5072612;28;20257;-66
2021/06/04 03:28:37;;;;;;;7.47;6.60;;;;;;;16.04;100.00;98570.44;5072404;28;20215;-65
2021/06/04 03:31:05;;;;;;;8.07;7.03;;;;;;;16.00;100.00;98570.00;5072158;28;20208;-65
2021/06/04 03:33:34;;;;;;;8.13;6.67;;;;;;;15.99;100.00;98569.16;5072425;28;20211;-65
2021/06/04 03:36:03;;;;;;;7.60;6.90;;;;;;;16.00;100.00;98572.66;5073791;28;20212;-65
2021/06/04 03:38:29;;;;;;;7.63;6.93;;;;;;;16.00;100.00;98568.16;5076140;28;20218;-65
2021/06/04 03:40:56;;;;;;;7.80;6.20;;;;;;;15.97;100.00;98570.25;5075762;28;20243;-65
2021/06/04 03:43:25;;;;;;;7.30;6.47;;;;;;;15.95;100.00;98574.88;5075642;28;20215;-65
2021/06/04 03:45:52;;;;;;;7.33;6.63;;;;;;;15.93;100.00;98569.66;5075022;28;20207;-66
2021/06/04 03:48:21;;;;;;;7.10;6.40;;;;;;;15.93;100.00;98563.47;5075855;28;20210;-65
2021/06/04 03:50:51;;;;;;;7.20;6.50;;;;;;;15.95;100.00;98574.88;5075883;28;20215;-65
2021/06/04 03:53:18;;;;;;;7.57;6.77;;;;;;;16.00;100.00;98572.66;5075796;28;20207;-64
2021/06/04 03:55:44;;;;;;;7.63;6.90;;;;;;;16.04;100.00;98574.94;5075545;28;20261;-64
2021/06/04 03:58:12;;;;;;;7.67;6.87;;;;;;;16.08;100.00;98577.22;5075800;28;20207;-66
2021/06/04 04:00:42;;;;;;;8.07;6.50;;;;;;;16.16;100.00;98579.25;5075657;28;20241;-67
2021/06/04 04:03:13;;;;;;;7.53;6.83;;;;;;;16.22;100.00;98579.56;5075748;28;20215;-67
2021/06/04 04:05:40;;;;;;;7.70;7.00;;;;;;;16.30;100.00;98577.09;5075752;28;20211;-67
2021/06/04 04:08:07;;;;;;;8.67;7.13;;;;;;;16.37;100.00;98578.25;5075441;28;20222;-66
2021/06/04 04:10:34;;;;;;;8.33;7.37;;;;;;;16.47;100.00;98581.84;5073993;28;20214;-66
2021/06/04 04:13:00;;;;;;;8.07;7.30;;;;;;;16.57;100.00;98579.25;5075462;28;20214;-66
2021/06/04 04:15:27;;;;;;;8.70;6.60;;;;;;;16.67;100.00;98578.31;5075381;28;20247;-66
2021/06/04 04:17:58;;;;;;;8.27;7.47;;;;;;;16.80;100.00;98576.28;5075046;28;20677;-66
2021/06/04 04:20:28;;;;;;;7.30;6.60;;;;;;;16.90;100.00;98576.31;5074903;28;20709;-66
2021/06/04 04:22:55;;;;;;;7.60;6.50;;;;;;;17.01;100.00;98574.38;5075245;28;20207;-66
2021/06/04 04:25:22;;;;;;;7.43;6.73;;;;;;;17.16;100.00;98577.53;5074975;28;20217;-66
2021/06/04 04:27:48;;;;;;;7.80;7.00;;;;;;;17.31;100.00;98584.19;5075272;28;20207;-66
2021/06/04 04:30:16;;;;;;;7.93;7.13;;;;;;;17.44;100.00;98593.66;5075023;28;20735;-66
2021/06/04 04:32:43;;;;;;;7.70;6.90;;;;;;;17.58;100.00;98595.97;5075073;28;20214;-66
2021/06/04 04:35:11;;;;;;;6.90;6.30;;;;;;;17.74;100.00;98585.56;5075138;28;20226;-66
2021/06/04 04:37:38;;;;;;;6.90;6.20;;;;;;;17.88;100.00;98586.97;5073299;28;20212;-66
2021/06/04 04:40:07;;;;;;;6.70;6.10;;;;;;;18.04;100.00;98585.44;5074867;28;20599;-66
2021/06/04 04:42:33;;;;;;;7.07;6.37;;;;;;;18.18;100.00;98585.00;5074767;28;20254;-66
2021/06/04 04:44:59;;;;;;;7.00;6.30;;;;;;;18.36;100.00;98588.66;5074925;28;20208;-66
2021/06/04 04:47:25;;;;;;;7.10;6.40;;;;;;;18.51;100.00;98591.72;5074337;28;20212;-67
2021/06/04 04:49:51;;;;;;;6.63;6.03;;;;;;;18.62;100.00;98591.56;5074585;28;20212;-65
2021/06/04 04:52:19;;;;;;;7.37;6.60;;;;;;;18.68;100.00;98591.84;5074683;28;20253;-64
2021/06/04 04:54:48;;;;;;;8.20;7.17;;;;;;;18.88;100.00;98590.78;5074726;28;20207;-65
2021/06/04 04:57:15;;;;;;;7.60;6.90;;;;;;;18.91;100.00;98589.66;5074709;28;20203;-65
2021/06/04 04:59:41;;;;;;;7.13;6.43;;;;;;;18.95;100.00;98597.25;5074559;28;20221;-69
2021/06/04 05:02:08;;;;;;;7.27;6.50;;;;;;;18.97;100.00;98600.59;5072752;28;20284;-65
2021/06/04 05:04:36;;;;;;;6.90;6.20;;;;;;;19.04;100.00;98609.78;5074324;28;20211;-66
2021/06/04 05:07:02;;;;;;;7.10;6.37;;;;;;;19.04;100.00;98604.41;5074367;28;20218;-65
2021/06/04 05:09:29;;;;;;;6.47;5.87;;;;;;;19.06;100.00;98621.19;5074351;28;20212;-64
2021/06/04 05:11:56;;;;;;;7.03;6.13;;;;;;;19.08;100.00;98624.53;5074305;28;20211;-64
2021/06/04 05:14:22;;;;;;;6.73;6.13;;;;;;;19.09;100.00;98620.88;5073716;28;20211;-65
2021/06/04 05:16:48;;;;;;;6.43;5.83;;;;;;;19.01;100.00;98612.72;5073971;28;20226;-64
2021/06/04 05:19:15;;;;;;;5.80;5.30;;;;;;;18.97;100.00;98626.56;5074209;28;20222;-65
2021/06/04 05:21:41;;;;;;;6.67;6.07;;;;;;;18.85;100.00;98623.25;5074078;28;20254;-65
2021/06/04 05:24:08;;;;;;;7.43;6.70;;;;;;;18.65;100.00;98631.47;5074056;28;20219;-63
2021/06/04 05:26:34;;;;;;;7.03;6.33;;;;;;;18.36;100.00;98631.47;5073684;28;20215;-61
2021/06/04 05:29:03;;;;;;;8.17;6.87;;;;;;;18.16;100.00;98624.41;5072431;28;20207;-60
2021/06/04 05:31:29;;;;;;;8.00;7.20;;;;;;;17.98;100.00;98619.94;5073893;28;20256;-59
2021/06/04 05:33:55;;;;;;;9.70;8.33;;;;;;;17.81;100.00;98616.09;5073729;28;20207;-58
2021/06/04 05:36:26;;;;;;;8.83;7.93;;;;;;;17.69;100.00;98619.88;5073678;28;20669;-58
2021/06/04 05:38:52;;;;;;;8.27;7.47;;;;;;;17.71;100.00;98623.28;5073780;28;20215;-62
2021/06/04 05:41:20;;;;;;;9.13;8.23;;;;;;;17.75;100.00;98613.16;5073621;28;20242;-61
2021/06/04 05:43:47;;;;;;;9.10;8.20;;;;;;;17.78;100.00;98616.38;5073907;28;20212;-59
2021/06/04 05:46:17;;;;;;;9.87;8.77;;;;;;;17.82;100.00;98624.97;5073464;28;20211;-61
2021/06/04 05:48:43;;;;;;;11.77;10.13;;;;;;;17.88;100.00;98625.28;5073643;28;20212;-62
2021/06/04 05:51:14;;;;;;;11.20;9.37;;;;;;;17.91;100.00;98624.97;5073175;28;20673;-62
2021/06/04 05:53:41;;;;;;;8.93;8.13;;;;;;;17.92;100.00;98631.19;5073148;28;20473;-61
2021/06/04 05:56:10;;;;;;;10.40;9.33;;;;;;;17.93;100.00;98620.31;5072449;28;20258;-61
2021/06/04 05:58:36;;;;;;;10.33;9.13;;;;;;;17.93;100.00;98628.34;5072742;28;20635;-61
2021/06/04 06:01:07;;;;;;;9.77;8.77;;;;;;;17.90;100.00;98627.78;5073338;28;20239;-61
2021/06/04 06:03:37;;;;;;;10.37;9.27;;;;;;;17.91;100.00;98624.97;5073445;28;20580;-61
2021/06/04 06:06:04;;;;;;;9.93;8.97;;;;;;;17.99;100.00;98625.13;5073169;28;20267;-62
2021/06/04 06:08:30;;;;;;;11.57;9.47;;;;;;;18.08;100.00;98637.66;5073479;28;20218;-62
2021/06/04 06:10:56;;;;;;;10.40;9.17;;;;;;;18.17;100.00;98647.50;5073023;28;20700;-61
2021/06/04 06:13:24;;;;;;;11.37;10.13;;;;;;;18.24;100.00;98648.63;5073010;28;20217;-62
2021/06/04 06:15:50;;;;;;;13.87;10.70;;;;;;;18.24;100.00;98648.63;5072787;28;20716;-62
2021/06/04 06:18:17;;;;;;;10.50;9.20;;;;;;;18.24;100.00;98645.97;5073224;28;20211;-61
2021/06/04 06:20:44;;;;;;;11.70;10.50;;;;;;;18.31;100.00;98640.94;5071497;28;20226;-61
2021/06/04 06:23:13;;;;;;;11.43;10.23;;;;;;;18.35;100.00;98647.69;5073006;28;20215;-61
2021/06/04 06:25:41;;;;;;;11.17;10.07;;;;;;;18.44;100.00;98650.38;5072832;28;20207;-62
2021/06/04 06:28:10;;;;;;;10.80;9.70;;;;;;;18.59;100.00;98643.56;5072781;28;20728;-62
2021/06/04 06:30:36;;;;;;;9.83;8.83;;;;;;;18.77;100.00;98639.16;5072849;28;20703;-62
2021/06/04 06:33:03;;;;;;;10.73;9.60;;;;;;;18.98;100.00;98634.47;5072960;28;20207;-62
2021/06/04 06:35:33;;;;;;;10.60;9.57;;;;;;;19.10;100.00;98646.69;5073185;28;20227;-62
2021/06/04 06:38:01;;;;;;;9.33;8.53;;;;;;;19.23;100.00;98641.03;5072685;28;20212;-62
2021/06/04 06:40:27;;;;;;;8.60;7.77;;;;;;;19.42;100.00;98638.25;5072880;28;20247;-62
2021/06/04 06:42:54;;;;;;;9.07;8.23;;;;;;;19.66;100.00;98642.09;5072933;28;20261;-62
2021/06/04 06:45:23;;;;;;;9.97;8.97;;;;;;;19.90;100.00;98653.09;5072968;28;20549;-63
2021/06/04 06:47:50;;;;;;;9.20;8.30;;;;;;;20.06;100.00;98650.59;5071223;28;20211;-62
2021/06/04 06:50:16;;;;;;;9.10;7.83;;;;;;;20.19;100.00;98650.22;5072863;28;20221;-64
2021/06/04 06:52:42;;;;;;;9.00;8.20;;;;;;;20.16;100.00;98656.75;5072706;28;20299;-63
2021/06/04 06:55:11;;;;;;;9.63;7.37;;;;;;;20.17;100.00;98653.06;5072799;28;20264;-63
2021/06/04 06:57:37;;;;;;;8.00;7.23;;;;;;;20.20;100.00;98662.63;5072981;28;20219;-63
2021/06/04 07:00:05;;;;;;;8.67;7.87;;;;;;;20.17;100.00;98663.78;5072930;28;20233;-63
2021/06/04 07:02:31;;;;;;;7.77;7.10;;;;;;;20.12;100.00;98670.63;5072542;28;20696;-61
2021/06/04 07:04:57;;;;;;;9.47;8.23;;;;;;;20.04;100.00;98671.34;5072754;28;20207;-63
2021/06/04 07:07:23;;;;;;;9.47;8.57;;;;;;;19.92;100.00;98664.50;5072814;28;20233;-63
2021/06/04 07:09:48;;;;;;;10.67;9.57;;;;;;;19.81;100.00;98656.66;5074008;28;20582;-63
2021/06/04 07:12:16;;;;;;;10.13;9.13;;;;;;;19.72;100.00;98659.41;5073692;28;20595;-63
2021/06/04 07:14:42;;;;;;;9.53;8.63;;;;;;;19.64;100.00;98659.31;5075746;28;20715;-63
2021/06/04 07:17:08;;;;;;;10.00;9.00;;;;;;;19.62;100.00;98662.13;5075665;28;20216;-63
2021/06/04 07:19:35;;;;;;;9.53;8.63;;;;;;;19.63;100.00;98663.81;5075988;28;20264;-63
2021/06/04 07:22:02;;;;;;;9.47;8.57;;;;;;;19.61;100.00;98668.50;5075882;28;20619;-63
2021/06/04 07:24:29;;;;;;;8.97;8.17;;;;;;;19.65;100.00;98666.38;5075840;28;20216;-63
2021/06/04 07:26:58;;;;;;;9.37;8.43;;;;;;;19.64;100.00;98672.72;5075809;28;20207;-63
2021/06/04 07:29:28;;;;;;;9.30;8.40;;;;;;;19.61;100.00;98670.31;5075605;28;20277;-63
2021/06/04 07:31:55;;;;;;;9.40;8.53;;;;;;;19.65;100.00;98685.13;5075667;28;20268;-63
2021/06/04 07:34:23;;;;;;;8.80;8.00;;;;;;;19.75;100.00;98681.41;5075606;28;20211;-63
2021/06/04 07:36:54;;;;;;;8.47;7.67;;;;;;;19.83;100.00;98692.25;5075589;28;20618;-63
2021/06/04 07:39:22;;;;;;;9.23;8.33;;;;;;;19.92;100.00;98688.66;5073899;28;20215;-63
2021/06/04 07:41:49;;;;;;;8.67;7.80;;;;;;;19.95;100.00;98691.06;5075336;28;20235;-63
2021/06/04 07:44:15;;;;;;;9.63;8.60;;;;;;;20.02;100.00;98686.75;5075458;28;20208;-64
2021/06/04 07:46:44;;;;;;;8.57;7.77;;;;;;;20.03;100.00;98680.41;5075282;28;20574;-63
2021/06/04 07:49:10;;;;;;;8.40;7.53;;;;;;;20.09;100.00;98687.88;5075207;28;20238;-63
2021/06/04 07:51:39;;;;;;;7.50;6.70;;;;;;;20.24;100.00;98689.03;5073003;28;20204;-63
2021/06/04 07:54:06;;;;;;;6.70;5.97;;;;;;;20.43;100.00;98686.19;5073003;28;20208;-64
2021/06/04 07:56:32;;;;;;;7.47;6.73;;;;;;;20.59;100.00;98682.78;5073889;28;20223;-64
2021/06/04 07:58:59;;;;;;;6.50;5.90;;;;;;;20.79;100.00;98682.47;5074160;28;20614;-64
2021/06/04 08:01:25;;;;;;;7.23;6.53;;;;;;;21.03;100.00;98690.72;5071647;28;20650;-65
2021/06/04 08:03:53;;;;;;;7.23;6.50;;;;;;;21.34;98.62;98678.50;5072875;28;20302;-65
2021/06/04 08:06:20;;;;;;;6.77;6.07;;;;;;;21.62;96.89;98676.44;5072452;28;20207;-65
2021/06/04 08:08:46;;;;;;;7.07;6.30;;;;;;;21.90;93.58;98677.94;5073016;28;20254;-65
2021/06/04 08:11:19;;;;;;;7.67;6.47;;;;;;;22.19;90.34;98675.66;5073819;28;20229;-66
2021/06/04 08:13:46;;;;;;;6.63;5.93;;;;;;;22.37;86.48;98674.50;5074054;28;20211;-66
2021/06/04 08:16:12;;;;;;;6.57;5.97;;;;;;;22.57;87.50;98677.75;5073214;28;20697;-64
2021/06/04 08:18:40;;;;;;;7.50;6.10;;;;;;;22.78;83.92;98681.63;5073676;28;20310;-65
2021/06/04 08:21:11;;;;;;;10.30;6.90;;;;;;;23.03;87.28;98677.06;5071080;28;20277;-65
2021/06/04 08:23:40;;;;;;;6.70;5.97;;;;;;;23.23;87.24;98671.13;5072607;28;20207;-65
2021/06/04 08:26:09;;;;;;;6.40;5.23;;;;;;;23.48;82.66;98680.84;5073607;28;20216;-65
2021/06/04 08:28:36;;;;;;;6.23;5.63;;;;;;;23.69;80.16;98681.13;5073313;28;20211;-65
2021/06/04 08:31:03;;;;;;;5.60;5.00;;;;;;;23.78;76.66;98685.47;5072247;28;20216;-65
2021/06/04 08:33:32;;;;;;;4.87;4.47;;;;;;;23.83;76.52;98683.09;5072013;28;20215;-65
2021/06/04 08:35:58;;;;;;;6.47;4.70;;;;;;;23.79;74.66;98689.03;5073436;28;20265;-65
2021/06/04 08:38:28;;;;;;;4.63;4.13;;;;;;;23.78;74.92;98685.47;5072690;28;20212;-65
2021/06/04 08:40:55;;;;;;;6.40;5.80;;;;;;;23.81;78.99;98681.56;5073360;28;20239;-66
2021/06/04 08:43:45;;;;;;;5.70;5.20;;;;;;;23.88;82.44;98679.88;5073047;28;20219;-65
2021/06/04 08:46:17;;;;;;;5.30;4.80;;;;;;;24.06;82.66;98684.03;5073501;28;20207;-65
2021/06/04 08:48:48;;;;;;;5.47;4.40;;;;;;;24.26;81.16;98679.03;5073402;28;20211;-65
2021/06/04 08:51:30;;;;;;;5.13;4.40;;;;;;;24.53;82.82;98682.03;5072149;28;20947;-65
2021/06/04 08:54:29;;;;;;;5.17;4.77;;;;;;;24.68;82.04;98685.66;5053484;28;20621;-65
2021/06/04 08:56:59;;;;;;;5.67;5.13;;;;;;;24.65;80.04;98688.75;5053596;28;20216;-65
2021/06/04 08:59:25;;;;;;;6.67;5.00;;;;;;;24.54;79.55;98683.72;5052266;28;20670;-65
2021/06/04 09:01:55;;;;;;;5.30;4.80;;;;;;;24.48;79.53;98684.44;5051892;28;20629;-65
2021/06/04 09:04:24;;;;;;;4.60;4.20;;;;;;;24.47;80.08;98682.75;5071220;28;20611;-65
2021/06/04 09:06:58;;;;;;;5.30;4.80;;;;;;;24.54;79.63;98682.88;5072073;28;20203;-65
2021/06/04 09:09:30;;;;;;;4.90;4.40;;;;;;;24.61;81.13;98679.28;5072735;28;20212;-65
2021/06/04 09:11:58;;;;;;;4.17;3.70;;;;;;;24.67;76.58;98689.38;5073631;28;20208;-65
2021/06/04 09:14:25;;;;;;;5.27;4.43;;;;;;;24.81;77.71;98691.28;5073220;28;20714;-65
2021/06/04 09:17:08;;;;;;;4.30;3.90;;;;;;;24.86;77.50;98679.94;5073436;28;20215;-65
2021/06/04 09:19:43;;;;;;;4.80;4.40;;;;;;;24.97;79.07;98669.53;5073711;28;20230;-65
2021/06/04 09:22:10;;;;;;;4.30;3.90;;;;;;;25.05;77.93;98676.72;5073547;28;20284;-65
2021/06/04 09:24:41;;;;;;;4.17;3.77;;;;;;;25.08;73.72;98677.19;5073311;28;20207;-65
2021/06/04 09:27:23;;;;;;;4.30;3.60;;;;;;;25.09;68.20;98672.63;5071752;28;20218;-65
2021/06/04 09:30:08;;;;;;;4.30;3.40;;;;;;;25.06;75.76;98675.69;5073153;28;20672;-65
2021/06/04 09:32:35;;;;;;;3.37;2.90;;;;;;;25.07;65.31;98667.41;5072833;28;20204;-65
2021/06/04 09:35:09;;;;;;;3.17;2.40;;;;;;;25.13;63.32;98666.69;5072596;28;20221;-65
2021/06/04 09:37:37;;;;;;;2.80;2.23;;;;;;;25.00;62.16;98674.56;5073107;28;20730;-65
2021/06/04 09:40:19;;;;;;;3.00;2.20;;;;;;;25.03;61.39;98663.38;5073375;28;20587;-65
2021/06/04 09:42:55;;;;;;;2.97;2.20;;;;;;;25.11;61.15;98660.59;5073286;28;20550;-65
2021/06/04 09:45:26;;;;;;;2.37;2.10;;;;;;;25.18;60.82;98660.69;5072986;28;20213;-65
2021/06/04 09:48:03;;;;;;;2.50;2.30;;;;;;;25.15;59.33;98656.50;5072807;28;20211;-65
2021/06/04 09:50:32;;;;;;;2.87;2.30;;;;;;;25.30;58.48;98649.25;5073047;28;20211;-65
2021/06/04 09:53:10;;;;;;;2.47;2.27;;;;;;;25.34;63.36;98639.75;5072596;28;20211;-65
2021/06/04 09:55:39;;;;;;;5.53;3.33;;;;;;;25.42;61.84;98644.22;5071138;28;20222;-66
2021/06/04 09:58:09;;;;;;;2.97;2.67;;;;;;;25.38;61.11;98630.25;5073011;28;20579;-65
2021/06/04 10:00:38;;;;;;;5.27;2.93;;;;;;;25.38;63.28;98627.53;5072891;28;20207;-65
2021/06/04 10:03:18;;;;;;;4.43;3.07;;;;;;;25.37;61.94;98623.13;5073064;28;20711;-65
2021/06/04 10:05:44;;;;;;;3.10;2.80;;;;;;;25.46;61.84;98632.84;5072544;28;20525;-65
2021/06/04 10:08:19;;;;;;;3.23;2.93;;;;;;;25.48;59.95;98636.19;5072839;28;20214;-65
2021/06/04 10:11:01;;;;;;;3.10;2.80;;;;;;;25.62;62.83;98632.66;5072888;28;20218;-66
2021/06/04 10:13:35;;;;;;;5.23;3.30;;;;;;;25.81;59.11;98632.06;5072848;28;20285;-65
2021/06/04 10:16:04;;;;;;;4.27;3.27;;;;;;;25.90;57.29;98632.84;5072807;28;20270;-65
2021/06/04 10:18:35;;;;;;;5.27;3.07;;;;;;;25.71;58.04;98634.22;5072680;28;20371;-65
2021/06/04 10:21:12;;;;;;;4.00;2.90;;;;;;;25.75;56.46;98627.41;5070924;28;20235;-65
2021/06/04 10:23:40;;;;;;;3.57;2.80;;;;;;;25.78;57.10;98626.19;5072245;28;20581;-65
2021/06/04 10:26:22;;;;;;;3.37;3.07;;;;;;;25.79;57.52;98623.28;5072387;28;20212;-65
2021/06/04 10:28:51;;;;;;;3.70;3.40;;;;;;;26.01;61.28;98625.03;5072558;28;20216;-65
2021/06/04 10:31:35;;;;;;;3.20;2.90;;;;;;;26.04;57.97;98626.53;5072364;28;20290;-65
2021/06/04 10:34:10;;;;;;;3.87;3.47;;;;;;;25.98;58.83;98644.38;5072501;28;20212;-65
2021/06/04 10:36:41;;;;;;;3.87;3.40;;;;;;;25.95;57.08;98633.94;5072196;28;20742;-65
2021/06/04 10:39:10;;;;;;;3.63;3.33;;;;;;;25.89;58.45;98625.69;5072482;28;20223;-65
2021/06/04 10:41:45;;;;;;;4.73;3.23;;;;;;;25.96;58.60;98630.19;5072347;28;20237;-65
2021/06/04 10:44:20;;;;;;;3.40;3.13;;;;;;;26.05;58.64;98623.63;5072426;28;20516;-65
2021/06/04 10:46:53;;;;;;;6.50;3.37;;;;;;;26.35;58.67;98625.22;5076395;28;20211;-65
2021/06/04 10:49:31;;;;;;;3.50;3.20;;;;;;;26.54;56.62;98621.88;5074093;28;20734;-65
2021/06/04 10:52:01;;;;;;;3.77;3.10;;;;;;;26.54;58.95;98612.91;5076255;28;20604;-65
2021/06/04 10:54:41;;;;;;;4.40;3.10;;;;;;;26.62;56.29;98610.91;5076362;28;20211;-65
2021/06/04 10:57:14;;;;;;;4.53;3.40;;;;;;;26.63;55.42;98604.44;5075680;28;20211;-65
2021/06/04 10:59:50;;;;;;;3.87;3.37;;;;;;;26.53;56.25;98609.34;5075976;28;20669;-65
2021/06/04 11:02:24;;;;;;;3.90;3.20;;;;;;;26.55;57.83;98599.16;5076225;28;20239;-65
2021/06/04 11:05:02;;;;;;;5.57;3.37;;;;;;;26.35;56.32;98608.94;5075847;28;20218;-65
2021/06/04 11:07:37;;;;;;;4.10;3.70;;;;;;;26.01;56.78;98611.50;5076135;28;20218;-65
2021/06/04 11:10:12;;;;;;;3.70;3.40;;;;;;;25.71;59.23;98606.28;5076079;28;20202;-65
2021/06/04 11:13:15;;;;;;;5.13;3.30;;;;;;;25.47;59.55;98612.03;5075538;28;20206;-65
2021/06/04 11:15:55;;;;;;;3.97;3.67;;;;;;;25.29;63.19;98608.88;5063676;28;20238;-65
2021/06/04 11:18:34;;;;;;;3.63;3.27;;;;;;;25.19;64.15;98609.13;5075833;28;20211;-65
2021/06/04 11:21:02;;;;;;;3.87;3.47;;;;;;;25.16;64.63;98601.34;5075833;28;20583;-65
2021/06/04 11:23:34;;;;;;;3.47;3.17;;;;;;;25.19;68.22;98594.75;5075807;28;20344;-66
2021/06/04 11:26:04;;;;;;;3.60;3.30;;;;;;;25.23;67.84;98598.75;5075176;28;20207;-67
2021/06/04 11:28:44;;;;;;;4.07;3.67;;;;;;;25.31;65.71;98590.56;5075765;28;20212;-68
2021/06/04 11:31:25;;;;;;;3.63;3.33;;;;;;;25.35;65.52;98590.00;5076097;28;20210;-66
2021/06/04 11:33:54;;;;;;;3.40;3.20;;;;;;;25.45;66.31;98592.41;5075180;28;20695;-66
2021/06/04 11:36:24;;;;;;;3.67;3.37;;;;;;;25.52;64.68;98583.38;5076131;28;20260;-67
2021/06/04 11:38:52;;;;;;;3.60;3.20;;;;;;;25.56;67.67;98573.84;5076114;28;20204;-66